Time,TemperatureF,DewpointF,PressureIn,WindDirection,WindDirectionDegrees,WindSpeedMPH,WindSpeedGustMPH,Humidity,HourlyPrecipIn,Conditions,Clouds,dailyrainin,SoftwareType,DateUTC
2013-01-22 00:02:00,30.4,29.9,30.06,NE,45,0.0,0.0,98,0.00,,---,0.00,VWS V14.01,2013-01-22 08:02:00,
2013-01-22 00:08:00,30.4,29.9,30.06,SW,225,0.0,0.0,98,0.00,,---,0.00,VWS V14.01,2013-01-22 08:08:00,
2013-01-22 00:14:00,30.4,29.9,30.06,East,90,0.0,0.0,98,0.00,,---,0.00,VWS V14.01,2013-01-22 08:14:00,
2013-01-22 00:19:00,30.2,29.7,30.06,NE,45,0.0,0.0,98,0.00,,---,0.00,VWS V14.01,2013-01-22 08:19:00,
2013-01-22 00:25:00,30.0,29.5,30.03,ENE,68,0.0,0.0,98,0.00,,---,0.00,VWS V14.01,2013-01-22 08:25:00,
2013-01-22 00:31:00,29.7,29.2,30.03,ESE,112,0.0,0.0,98,0.00,,---,0.00,VWS V14.01,2013-01-22 08:31:00,
2013-01-22 00:36:00,29.5,29.0,30.03,NE,45,0.0,0.0,98,0.00,,---,0.00,VWS V14.01,2013-01-22 08:36:00,
2013-01-22 00:42:00,29.5,29.0,30.03,NE,45,0.0,0.0,98,0.00,,---,0.00,VWS V14.01,2013-01-22 08:42:00,
2013-01-22 00:47:00,29.3,28.8,30.03,NE,45,0.0,0.0,98,0.00,,---,0.00,VWS V14.01,2013-01-22 08:47:00,
2013-01-22 00:53:00,29.1,28.6,30.03,NE,45,0.0,0.0,98,0.00,,---,0.00,VWS V14.01,2013-01-22 08:53:00,
2013-01-22 00:58:00,28.9,28.5,30.03,NE,45,0.0,0.0,98,0.00,,---,0.00,VWS V14.01,2013-01-22 08:58:00,
2013-01-22 01:04:00,28.9,28.5,30.03,ENE,68,0.0,0.0,98,0.00,,---,0.00,VWS V14.01,2013-01-22 09:04:00,
2013-01-22 01:10:00,28.9,28.5,30.06,NE,45,0.0,0.0,98,0.00,,---,0.00,VWS V14.01,2013-01-22 09:10:00,
2013-01-22 01:15:00,28.9,28.5,30.06,NE,45,0.0,0.0,98,0.00,,---,0.00,VWS V14.01,2013-01-22 09:15:00,
2013-01-22 01:20:00,28.9,28.5,30.06,NE,45,0.0,0.0,98,0.00,,---,0.00,VWS V14.01,2013-01-22 09:20:00,
2013-01-22 01:25:00,29.1,28.6,30.06,North,0,0.9,1.1,98,0.00,,---,0.00,VWS V14.01,2013-01-22 09:25:00,
2013-01-22 01:31:00,29.3,28.8,30.06,North,0,0.0,0.0,98,0.00,,---,0.00,VWS V14.01,2013-01-22 09:31:00,
2013-01-22 01:36:00,29.5,29.0,30.06,NE,45,0.0,0.0,98,0.00,,---,0.00,VWS V14.01,2013-01-22 09:36:00,
2013-01-22 01:42:00,29.5,29.0,30.06,NE,45,0.0,0.0,98,0.00,,---,0.00,VWS V14.01,2013-01-22 09:42:00,
2013-01-22 01:48:00,29.7,29.2,30.06,NE,45,0.0,0.0,98,0.00,,---,0.00,VWS V14.01,2013-01-22 09:48:00,
2013-01-22 01:54:00,29.7,29.2,30.06,South,180,1.3,2.2,98,0.00,,---,0.00,VWS V14.01,2013-01-22 09:54:00,
2013-01-22 02:00:00,29.7,29.2,30.06,NNW,338,0.0,0.9,98,0.00,,---,0.00,VWS V14.01,2013-01-22 10:00:00,
2013-01-22 02:06:00,29.5,29.0,30.06,NE,45,0.0,0.9,98,0.00,,---,0.00,VWS V14.01,2013-01-22 10:06:00,
2013-01-22 02:11:00,29.5,29.0,30.03,ESE,112,0.0,0.0,98,0.00,,---,0.00,VWS V14.01,2013-01-22 10:11:00,
2013-01-22 02:17:00,29.3,28.8,30.03,ESE,112,0.0,0.0,98,0.00,,---,0.00,VWS V14.01,2013-01-22 10:17:00,
2013-01-22 02:22:00,29.1,28.6,30.03,ESE,112,0.0,0.0,98,0.00,,---,0.00,VWS V14.01,2013-01-22 10:22:00,
2013-01-22 02:28:00,29.1,28.6,30.03,SE,135,0.0,0.0,98,0.00,,---,0.00,VWS V14.01,2013-01-22 10:28:00,
2013-01-22 02:33:00,28.9,28.5,30.03,SE,135,0.0,0.0,98,0.00,,---,0.00,VWS V14.01,2013-01-22 10:33:00,
2013-01-22 02:39:00,28.8,28.3,30.03,SE,135,0.0,0.0,98,0.00,,---,0.00,VWS V14.01,2013-01-22 10:39:00,
2013-01-22 02:45:00,28.8,28.3,30.03,ENE,68,0.0,0.0,98,0.00,,---,0.00,VWS V14.01,2013-01-22 10:45:00,
2013-01-22 02:50:00,28.8,28.3,30.03,NNE,22,0.0,0.0,98,0.00,,---,0.00,VWS V14.01,2013-01-22 10:50:00,
2013-01-22 02:55:00,28.6,28.1,30.00,NE,45,0.0,0.0,98,0.00,,---,0.00,VWS V14.01,2013-01-22 10:55:00,
2013-01-22 03:01:00,28.6,28.1,30.00,NE,45,0.0,0.0,98,0.00,,---,0.00,VWS V14.01,2013-01-22 11:01:00,
2013-01-22 03:06:00,28.6,28.1,30.00,SSW,202,0.0,0.0,98,0.00,,---,0.00,VWS V14.01,2013-01-22 11:06:00,
2013-01-22 03:11:00,28.6,28.1,30.03,SSE,158,0.0,0.0,98,0.00,,---,0.00,VWS V14.01,2013-01-22 11:11:00,
2013-01-22 03:17:00,28.4,27.9,30.03,East,90,0.0,0.0,98,0.00,,---,0.00,VWS V14.01,2013-01-22 11:17:00,
2013-01-22 03:22:00,28.6,28.1,30.03,East,90,0.0,0.0,98,0.00,,---,0.00,VWS V14.01,2013-01-22 11:22:00,
2013-01-22 03:28:00,28.6,28.1,30.00,NE,45,0.0,0.0,98,0.00,,---,0.00,VWS V14.01,2013-01-22 11:28:00,
2013-01-22 03:33:00,28.6,28.1,30.00,NE,45,0.0,0.0,98,0.00,,---,0.00,VWS V14.01,2013-01-22 11:33:00,
2013-01-22 03:38:00,28.8,28.3,30.00,ENE,68,0.0,0.0,98,0.00,,---,0.00,VWS V14.01,2013-01-22 11:38:00,
2013-01-22 03:43:00,28.8,28.3,30.03,NE,45,0.0,0.0,98,0.00,,---,0.00,VWS V14.01,2013-01-22 11:43:00,
2013-01-22 03:48:00,28.9,28.5,30.03,North,0,0.0,0.0,98,0.00,,---,0.00,VWS V14.01,2013-01-22 11:48:00,
2013-01-22 03:53:00,28.9,28.5,30.03,NE,45,0.0,0.0,98,0.00,,---,0.00,VWS V14.01,2013-01-22 11:53:00,
2013-01-22 03:59:00,29.1,28.6,30.03,NE,45,0.0,0.0,98,0.00,,---,0.00,VWS V14.01,2013-01-22 11:59:00,
2013-01-22 04:04:00,29.1,28.6,30.03,North,0,0.0,0.0,98,0.00,,---,0.00,VWS V14.01,2013-01-22 12:04:00,
2013-01-22 04:10:00,29.3,28.8,30.03,SE,135,0.0,0.0,98,0.00,,---,0.00,VWS V14.01,2013-01-22 12:10:00,
2013-01-22 04:16:00,29.5,29.0,30.03,SE,135,0.9,0.9,98,0.00,,---,0.00,VWS V14.01,2013-01-22 12:16:00,
2013-01-22 04:22:00,29.5,29.0,30.03,East,90,0.0,0.9,98,0.00,,---,0.00,VWS V14.01,2013-01-22 12:22:00,
2013-01-22 04:27:00,29.5,29.0,30.03,NE,45,0.0,0.0,98,0.00,,---,0.00,VWS V14.01,2013-01-22 12:27:00,
2013-01-22 04:32:00,29.5,29.0,30.03,NE,45,0.0,0.0,98,0.00,,---,0.00,VWS V14.01,2013-01-22 12:32:00,
2013-01-22 04:38:00,29.5,29.0,30.03,NNE,22,0.0,0.0,98,0.00,,---,0.00,VWS V14.01,2013-01-22 12:38:00,
2013-01-22 04:44:00,29.3,28.8,30.00,NW,315,0.0,0.0,98,0.00,,---,0.00,VWS V14.01,2013-01-22 12:44:00,
2013-01-22 04:49:00,29.3,28.8,30.00,NW,315,0.0,0.0,98,0.00,,---,0.00,VWS V14.01,2013-01-22 12:49:00,
2013-01-22 04:55:00,29.3,28.8,30.03,NW,315,0.0,0.0,98,0.00,,---,0.00,VWS V14.01,2013-01-22 12:55:00,
2013-01-22 05:00:00,29.3,28.8,30.03,NW,315,0.0,0.0,98,0.00,,---,0.00,VWS V14.01,2013-01-22 13:00:00,
2013-01-22 05:06:00,29.3,28.8,30.03,NE,45,0.0,0.0,98,0.00,,---,0.00,VWS V14.01,2013-01-22 13:06:00,
2013-01-22 05:12:00,29.1,28.6,30.03,East,90,0.0,0.0,98,0.00,,---,0.00,VWS V14.01,2013-01-22 13:12:00,
2013-01-22 05:17:00,28.9,28.5,30.03,NE,45,0.0,0.0,98,0.00,,---,0.00,VWS V14.01,2013-01-22 13:17:00,
2013-01-22 05:23:00,28.8,28.3,30.03,NE,45,0.0,0.0,98,0.00,,---,0.00,VWS V14.01,2013-01-22 13:23:00,
2013-01-22 05:29:00,28.8,28.3,30.03,NE,45,0.0,0.0,98,0.00,,---,0.00,VWS V14.01,2013-01-22 13:29:00,
2013-01-22 05:34:00,28.6,28.1,30.03,SE,135,0.0,0.0,98,0.00,,---,0.00,VWS V14.01,2013-01-22 13:34:00,
2013-01-22 05:40:00,28.6,28.1,30.03,ENE,68,0.0,0.0,98,0.00,,---,0.00,VWS V14.01,2013-01-22 13:40:00,
2013-01-22 05:45:00,28.6,28.1,30.03,ENE,68,0.0,0.0,98,0.00,,---,0.00,VWS V14.01,2013-01-22 13:45:00,
2013-01-22 05:52:00,28.4,27.9,30.03,ENE,68,0.0,0.0,98,0.00,,---,0.00,VWS V14.01,2013-01-22 13:52:00,
2013-01-22 05:57:00,28.4,27.9,30.06,NE,45,0.0,0.0,98,0.00,,---,0.00,VWS V14.01,2013-01-22 13:57:00,
2013-01-22 06:03:00,28.4,27.9,30.06,NE,45,0.0,0.0,98,0.00,,---,0.00,VWS V14.01,2013-01-22 14:03:00,
2013-01-22 06:09:00,28.2,27.7,30.06,NE,45,0.0,0.0,98,0.00,,---,0.00,VWS V14.01,2013-01-22 14:09:00,
2013-01-22 06:14:00,28.2,27.7,30.03,NE,45,0.0,0.0,98,0.00,,---,0.00,VWS V14.01,2013-01-22 14:14:00,
2013-01-22 06:19:00,28.2,27.7,30.03,NE,45,0.0,0.0,98,0.00,,---,0.00,VWS V14.01,2013-01-22 14:19:00,
2013-01-22 06:25:00,28.2,27.7,30.06,NE,45,0.0,0.0,98,0.00,,---,0.00,VWS V14.01,2013-01-22 14:25:00,
2013-01-22 06:30:00,28.2,27.7,30.06,ENE,68,0.0,0.0,98,0.00,,---,0.00,VWS V14.01,2013-01-22 14:30:00,
2013-01-22 06:36:00,28.2,27.7,30.06,ENE,68,0.0,0.0,98,0.00,,---,0.00,VWS V14.01,2013-01-22 14:36:00,
2013-01-22 06:42:00,28.2,27.7,30.03,South,180,0.0,0.0,98,0.00,,---,0.00,VWS V14.01,2013-01-22 14:42:00,
2013-01-22 06:47:00,28.2,27.7,30.03,East,90,0.0,0.0,98,0.00,,---,0.00,VWS V14.01,2013-01-22 14:47:00,
2013-01-22 06:52:00,28.2,27.7,30.03,North,0,1.3,1.3,98,0.00,,---,0.00,VWS V14.01,2013-01-22 14:52:00,
2013-01-22 06:57:00,28.2,27.7,30.00,ENE,68,0.0,0.0,98,0.00,,---,0.00,VWS V14.01,2013-01-22 14:57:00,
2013-01-22 07:02:00,28.2,27.7,30.00,East,90,0.0,0.0,98,0.00,,---,0.00,VWS V14.01,2013-01-22 15:02:00,
2013-01-22 07:08:00,28.4,27.9,30.00,SSE,158,0.0,0.0,98,0.00,,---,0.00,VWS V14.01,2013-01-22 15:08:00,
2013-01-22 07:13:00,28.2,27.7,30.00,East,90,0.0,0.0,98,0.00,,---,0.00,VWS V14.01,2013-01-22 15:13:00,
2013-01-22 07:18:00,28.2,27.7,30.00,NE,45,0.0,0.0,98,0.00,,---,0.00,VWS V14.01,2013-01-22 15:18:00,
2013-01-22 07:24:00,28.2,27.7,30.00,ENE,68,0.0,0.0,98,0.00,,---,0.00,VWS V14.01,2013-01-22 15:24:00,
2013-01-22 07:29:00,28.2,27.7,30.00,ENE,68,0.0,0.0,98,0.00,,---,0.00,VWS V14.01,2013-01-22 15:29:00,
2013-01-22 07:34:00,28.2,27.7,30.00,ESE,112,0.0,0.0,98,0.00,,---,0.00,VWS V14.01,2013-01-22 15:34:00,
2013-01-22 07:39:00,28.2,27.7,30.00,NNW,338,0.0,0.0,98,0.00,,---,0.00,VWS V14.01,2013-01-22 15:39:00,
2013-01-22 07:44:00,28.2,27.7,30.00,NNW,338,0.0,0.0,98,0.00,,---,0.00,VWS V14.01,2013-01-22 15:44:00,
2013-01-22 07:49:00,28.2,27.7,30.00,NNW,338,0.0,0.0,98,0.00,,---,0.00,VWS V14.01,2013-01-22 15:49:00,
2013-01-22 07:54:00,28.2,27.7,30.00,SE,135,0.0,0.0,98,0.00,,---,0.00,VWS V14.01,2013-01-22 15:54:00,
2013-01-22 08:00:00,28.2,27.7,30.00,South,180,0.0,0.0,98,0.00,,---,0.00,VWS V14.01,2013-01-22 16:00:00,
2013-01-22 08:06:00,28.2,27.7,30.00,NE,45,0.0,0.0,98,0.00,,---,0.00,VWS V14.01,2013-01-22 16:06:00,
2013-01-22 08:11:00,28.2,27.7,30.00,SE,135,0.0,0.9,98,0.00,,---,0.00,VWS V14.01,2013-01-22 16:11:00,
2013-01-22 08:17:00,28.4,27.9,30.00,East,90,0.0,0.0,98,0.00,,---,0.00,VWS V14.01,2013-01-22 16:17:00,
2013-01-22 08:22:00,28.6,28.1,30.00,SW,225,0.0,0.0,98,0.00,,---,0.00,VWS V14.01,2013-01-22 16:22:00,
2013-01-22 08:27:00,28.6,28.1,30.00,NE,45,0.0,0.0,98,0.00,,---,0.00,VWS V14.01,2013-01-22 16:27:00,
2013-01-22 08:32:00,28.6,28.1,30.00,East,90,0.0,0.0,98,0.00,,---,0.00,VWS V14.01,2013-01-22 16:32:00,
2013-01-22 08:37:00,28.8,28.3,30.00,East,90,0.0,0.0,98,0.00,,---,0.00,VWS V14.01,2013-01-22 16:37:00,
2013-01-22 08:43:00,28.8,28.3,30.00,NE,45,0.0,0.0,98,0.00,,---,0.00,VWS V14.01,2013-01-22 16:43:00,
2013-01-22 08:48:00,28.8,28.3,30.00,NE,45,0.0,0.0,98,0.00,,---,0.00,VWS V14.01,2013-01-22 16:48:00,
2013-01-22 08:53:00,28.8,28.3,30.00,SSE,158,0.0,0.0,98,0.00,,---,0.00,VWS V14.01,2013-01-22 16:53:00,
2013-01-22 08:58:00,28.9,28.5,30.03,East,90,0.0,0.0,98,0.00,,---,0.00,VWS V14.01,2013-01-22 16:58:00,
2013-01-22 09:04:00,29.3,28.8,30.03,NNE,22,0.0,0.0,98,0.00,,---,0.00,VWS V14.01,2013-01-22 17:04:00,
2013-01-22 09:10:00,29.5,29.0,30.00,SSE,158,0.0,0.0,98,0.00,,---,0.00,VWS V14.01,2013-01-22 17:10:00,
2013-01-22 09:15:00,29.8,29.3,30.00,South,180,0.0,0.0,98,0.00,,---,0.00,VWS V14.01,2013-01-22 17:15:00,
2013-01-22 09:21:00,30.0,29.5,30.00,South,180,0.0,0.0,98,0.00,,---,0.00,VWS V14.01,2013-01-22 17:21:00,
2013-01-22 09:26:00,30.2,29.7,30.00,South,180,0.0,0.0,98,0.00,,---,0.00,VWS V14.01,2013-01-22 17:26:00,
2013-01-22 09:32:00,30.6,30.1,30.00,SSE,158,0.0,0.0,98,0.00,,---,0.00,VWS V14.01,2013-01-22 17:32:00,
2013-01-22 09:38:00,30.9,30.4,30.00,North,0,0.0,0.0,98,0.00,,---,0.00,VWS V14.01,2013-01-22 17:38:00,
2013-01-22 09:43:00,30.9,30.4,30.00,North,0,0.0,0.0,98,0.00,,---,0.00,VWS V14.01,2013-01-22 17:43:00,
2013-01-22 09:49:00,31.1,30.6,30.00,SE,135,0.0,0.0,98,0.00,,---,0.00,VWS V14.01,2013-01-22 17:49:00,
2013-01-22 09:54:00,31.5,31.0,30.00,East,90,0.0,0.0,98,0.00,,---,0.00,VWS V14.01,2013-01-22 17:54:00,
2013-01-22 10:00:00,31.6,31.1,30.00,ENE,68,0.0,0.0,98,0.00,,---,0.00,VWS V14.01,2013-01-22 18:00:00,
2013-01-22 10:06:00,32.0,31.5,30.00,NNE,22,0.9,1.3,98,0.00,,---,0.00,VWS V14.01,2013-01-22 18:06:00,
2013-01-22 10:12:00,32.2,31.7,30.00,NE,45,0.0,0.0,98,0.00,,---,0.00,VWS V14.01,2013-01-22 18:12:00,
2013-01-22 10:18:00,32.4,31.9,30.00,NE,45,0.0,0.0,98,0.00,,---,0.00,VWS V14.01,2013-01-22 18:18:00,
2013-01-22 10:23:00,32.5,32.0,30.00,NE,45,0.0,0.0,98,0.00,,---,0.00,VWS V14.01,2013-01-22 18:23:00,
2013-01-22 10:28:00,32.9,32.4,30.00,NE,45,0.0,0.0,98,0.00,,---,0.00,VWS V14.01,2013-01-22 18:28:00,
2013-01-22 10:33:00,33.1,32.6,30.00,NE,45,0.0,0.0,98,0.00,,---,0.00,VWS V14.01,2013-01-22 18:33:00,
2013-01-22 10:38:00,33.3,32.8,30.00,NE,45,0.0,0.0,98,0.00,,---,0.00,VWS V14.01,2013-01-22 18:38:00,
2013-01-22 10:44:00,33.8,33.3,30.00,East,90,0.0,0.0,98,0.00,,---,0.00,VWS V14.01,2013-01-22 18:44:00,
2013-01-22 10:49:00,33.8,33.3,30.00,NE,45,0.0,0.0,98,0.00,,---,0.00,VWS V14.01,2013-01-22 18:49:00,
2013-01-22 10:55:00,34.0,33.5,29.97,NE,45,0.0,0.0,98,0.00,,---,0.00,VWS V14.01,2013-01-22 18:55:00,
2013-01-22 11:00:00,34.2,33.7,29.97,NE,45,0.0,0.0,98,0.00,,---,0.00,VWS V14.01,2013-01-22 19:00:00,
2013-01-22 11:06:00,34.3,33.8,29.97,NE,45,0.0,0.0,98,0.00,,---,0.00,VWS V14.01,2013-01-22 19:06:00,
2013-01-22 11:11:00,34.5,34.0,29.97,NE,45,0.0,0.0,98,0.00,,---,0.00,VWS V14.01,2013-01-22 19:11:00,
2013-01-22 11:17:00,34.7,34.2,29.97,NE,45,0.0,0.0,98,0.00,,---,0.00,VWS V14.01,2013-01-22 19:17:00,
2013-01-22 11:25:00,34.7,34.2,29.97,NW,315,0.0,0.0,98,0.00,,---,0.00,VWS V14.01,2013-01-22 19:25:00,
2013-01-22 11:30:00,34.9,34.4,29.94,NW,315,0.0,0.0,98,0.00,,---,0.00,VWS V14.01,2013-01-22 19:30:00,
2013-01-22 11:35:00,34.9,34.4,29.94,NW,315,0.0,0.0,98,0.00,,---,0.00,VWS V14.01,2013-01-22 19:35:00,
2013-01-22 11:42:00,35.1,34.5,29.94,NW,315,0.0,0.0,98,0.00,,---,0.00,VWS V14.01,2013-01-22 19:42:00,
2013-01-22 11:47:00,35.1,34.5,29.94,NW,315,0.0,0.0,98,0.00,,---,0.00,VWS V14.01,2013-01-22 19:47:00,
2013-01-22 11:52:00,35.2,34.7,29.94,NW,315,0.0,0.0,98,0.00,,---,0.00,VWS V14.01,2013-01-22 19:52:00,
2013-01-22 11:58:00,35.4,34.9,29.97,NW,315,0.0,0.0,98,0.00,,---,0.00,VWS V14.01,2013-01-22 19:58:00,
2013-01-22 12:03:00,35.4,34.9,29.97,NW,315,0.0,0.0,98,0.00,,---,0.00,VWS V14.01,2013-01-22 20:03:00,
2013-01-22 12:09:00,35.6,35.1,29.97,WNW,292,0.0,0.0,98,0.00,,---,0.00,VWS V14.01,2013-01-22 20:09:00,
2013-01-22 12:15:00,35.8,35.3,29.97,West,270,0.0,0.0,98,0.00,,---,0.00,VWS V14.01,2013-01-22 20:15:00,
2013-01-22 12:23:00,36.1,35.6,29.97,West,270,0.0,0.0,98,0.00,,---,0.00,VWS V14.01,2013-01-22 20:23:00,
2013-01-22 12:28:00,36.3,35.8,30.00,NW,315,0.0,0.0,98,0.00,,---,0.00,VWS V14.01,2013-01-22 20:28:00,
2013-01-22 12:34:00,36.5,36.0,30.00,NW,315,0.0,0.0,98,0.00,,---,0.00,VWS V14.01,2013-01-22 20:34:00,
2013-01-22 12:39:00,36.7,36.2,30.00,NW,315,0.0,0.0,98,0.00,,---,0.00,VWS V14.01,2013-01-22 20:39:00,
2013-01-22 12:44:00,36.9,36.3,29.97,NW,315,0.0,0.0,98,0.00,,---,0.00,VWS V14.01,2013-01-22 20:44:00,
2013-01-22 12:49:00,37.0,36.5,29.97,West,270,0.0,0.0,98,0.00,,---,0.00,VWS V14.01,2013-01-22 20:49:00,
2013-01-22 12:55:00,37.6,37.1,29.94,West,270,0.0,0.0,98,0.00,,---,0.00,VWS V14.01,2013-01-22 20:55:00,
2013-01-22 13:00:00,37.9,37.4,29.94,West,270,0.0,0.0,98,0.00,,---,0.00,VWS V14.01,2013-01-22 21:00:00,
2013-01-22 13:05:00,37.9,37.4,29.94,West,270,0.0,0.0,98,0.00,,---,0.00,VWS V14.01,2013-01-22 21:05:00,
2013-01-22 13:10:00,37.9,37.4,29.94,West,270,0.0,0.0,98,0.00,,---,0.00,VWS V14.01,2013-01-22 21:10:00,
2013-01-22 13:17:00,38.1,37.6,29.94,West,270,0.0,0.0,98,0.00,,---,0.00,VWS V14.01,2013-01-22 21:17:00,
2013-01-22 13:22:00,38.1,37.6,29.94,West,270,0.0,0.0,98,0.00,,---,0.00,VWS V14.01,2013-01-22 21:22:00,
2013-01-22 13:27:00,38.1,37.6,29.94,West,270,0.0,0.0,98,0.00,,---,0.00,VWS V14.01,2013-01-22 21:27:00,
2013-01-22 13:33:00,38.1,37.6,29.94,West,270,0.0,0.0,98,0.00,,---,0.00,VWS V14.01,2013-01-22 21:33:00,
2013-01-22 13:38:00,38.1,37.6,29.94,West,270,0.0,0.0,98,0.00,,---,0.00,VWS V14.01,2013-01-22 21:38:00,
2013-01-22 13:43:00,38.1,37.6,29.91,North,0,0.0,0.0,98,0.00,,---,0.00,VWS V14.01,2013-01-22 21:43:00,
2013-01-22 13:48:00,38.1,37.6,29.91,North,0,0.0,0.0,98,0.00,,---,0.00,VWS V14.01,2013-01-22 21:48:00,
2013-01-22 13:54:00,38.1,37.6,29.91,NE,45,0.0,0.0,98,0.00,,---,0.00,VWS V14.01,2013-01-22 21:54:00,
2013-01-22 13:59:00,37.9,37.4,29.88,NE,45,0.0,0.0,98,0.00,,---,0.00,VWS V14.01,2013-01-22 21:59:00,
2013-01-22 14:05:00,37.9,37.4,29.88,NE,45,0.0,0.0,98,0.00,,---,0.00,VWS V14.01,2013-01-22 22:05:00,
2013-01-22 14:11:00,37.9,37.4,29.88,NE,45,0.0,0.0,98,0.00,,---,0.00,VWS V14.01,2013-01-22 22:11:00,
2013-01-22 14:17:00,37.9,37.4,29.88,NE,45,0.0,0.0,98,0.00,,---,0.00,VWS V14.01,2013-01-22 22:17:00,
2013-01-22 14:22:00,37.9,37.4,29.88,NE,45,0.0,0.0,98,0.00,,---,0.00,VWS V14.01,2013-01-22 22:22:00,
2013-01-22 14:27:00,37.9,37.4,29.88,NE,45,0.0,0.0,98,0.00,,---,0.00,VWS V14.01,2013-01-22 22:27:00,
2013-01-22 14:33:00,37.9,37.4,29.88,NNE,22,0.0,0.0,98,0.00,,---,0.00,VWS V14.01,2013-01-22 22:33:00,
2013-01-22 14:39:00,37.9,37.4,29.88,NNE,22,0.0,0.0,98,0.00,,---,0.00,VWS V14.01,2013-01-22 22:39:00,
2013-01-22 14:44:00,38.1,37.6,29.91,NNE,22,0.0,0.0,98,0.00,,---,0.00,VWS V14.01,2013-01-22 22:44:00,
2013-01-22 14:50:00,38.1,37.6,29.91,NNE,22,0.0,0.0,98,0.00,,---,0.00,VWS V14.01,2013-01-22 22:50:00,
2013-01-22 14:55:00,38.3,37.8,29.91,NE,45,0.0,0.0,98,0.00,,---,0.00,VWS V14.01,2013-01-22 22:55:00,
2013-01-22 15:01:00,38.5,38.0,29.91,NE,45,0.0,0.0,98,0.00,,---,0.00,VWS V14.01,2013-01-22 23:01:00,
2013-01-22 15:07:00,38.5,38.0,29.91,NE,45,0.0,0.0,98,0.00,,---,0.00,VWS V14.01,2013-01-22 23:07:00,
2013-01-22 15:12:00,38.5,38.0,29.91,NE,45,0.0,0.0,98,0.00,,---,0.00,VWS V14.01,2013-01-22 23:12:00,
2013-01-22 15:18:00,38.3,37.8,29.91,North,0,0.0,0.0,98,0.00,,---,0.00,VWS V14.01,2013-01-22 23:18:00,
2013-01-22 15:24:00,38.1,37.6,29.91,North,0,0.0,0.0,98,0.00,,---,0.00,VWS V14.01,2013-01-22 23:24:00,
2013-01-22 15:29:00,37.9,37.4,29.91,North,0,0.0,0.0,98,0.00,,---,0.00,VWS V14.01,2013-01-22 23:29:00,
2013-01-22 15:35:00,37.9,37.4,29.91,North,0,0.0,0.0,98,0.00,,---,0.00,VWS V14.01,2013-01-22 23:35:00,
2013-01-22 15:40:00,37.9,37.4,29.91,North,0,0.0,0.0,98,0.00,,---,0.00,VWS V14.01,2013-01-22 23:40:00,
2013-01-22 15:45:00,37.8,37.2,29.91,NE,45,0.0,0.0,98,0.00,,---,0.00,VWS V14.01,2013-01-22 23:45:00,
2013-01-22 15:50:00,37.6,37.1,29.91,NNE,22,0.0,0.0,98,0.00,,---,0.00,VWS V14.01,2013-01-22 23:50:00,
2013-01-22 15:56:00,37.4,36.9,29.91,SW,225,0.0,0.0,98,0.00,,---,0.00,VWS V14.01,2013-01-22 23:56:00,
2013-01-22 16:01:00,37.4,36.9,29.91,ENE,68,0.0,0.0,98,0.00,,---,0.00,VWS V14.01,2013-01-23 00:01:00,
2013-01-22 16:06:00,37.2,36.7,29.91,North,0,0.0,0.0,98,0.00,,---,0.00,VWS V14.01,2013-01-23 00:06:00,
2013-01-22 16:11:00,37.2,36.7,29.91,NE,45,0.0,0.0,98,0.00,,---,0.00,VWS V14.01,2013-01-23 00:11:00,
2013-01-22 16:17:00,37.0,36.5,29.91,East,90,0.0,0.0,98,0.00,,---,0.00,VWS V14.01,2013-01-23 00:17:00,
2013-01-22 16:22:00,36.9,36.3,29.91,NE,45,0.0,0.0,98,0.00,,---,0.00,VWS V14.01,2013-01-23 00:22:00,
2013-01-22 16:27:00,36.9,36.3,29.91,NE,45,0.0,0.0,98,0.00,,---,0.00,VWS V14.01,2013-01-23 00:27:00,
2013-01-22 16:32:00,36.7,36.2,29.91,NE,45,0.0,0.0,98,0.00,,---,0.00,VWS V14.01,2013-01-23 00:32:00,
2013-01-22 16:37:00,36.7,36.2,29.91,NE,45,0.0,0.0,98,0.00,,---,0.00,VWS V14.01,2013-01-23 00:37:00,
2013-01-22 16:42:00,36.5,36.0,29.91,ENE,68,0.0,1.6,98,0.00,,---,0.00,VWS V14.01,2013-01-23 00:42:00,
2013-01-22 16:48:00,36.5,36.0,29.91,NW,315,0.0,0.0,98,0.00,,---,0.00,VWS V14.01,2013-01-23 00:48:00,
2013-01-22 16:53:00,36.3,35.8,29.91,NW,315,0.0,0.0,98,0.00,,---,0.00,VWS V14.01,2013-01-23 00:53:00,
2013-01-22 16:59:00,36.0,35.5,29.91,NW,315,0.0,0.0,98,0.00,,---,0.00,VWS V14.01,2013-01-23 00:59:00,
2013-01-22 17:04:00,36.0,35.5,29.91,SE,135,0.0,0.0,98,0.00,,---,0.00,VWS V14.01,2013-01-23 01:04:00,
2013-01-22 17:10:00,35.8,35.3,29.88,NW,315,0.0,0.0,98,0.00,,---,0.00,VWS V14.01,2013-01-23 01:10:00,
2013-01-22 17:17:00,35.6,35.1,29.88,NW,315,0.0,0.0,98,0.00,,---,0.00,VWS V14.01,2013-01-23 01:17:00,
2013-01-22 17:22:00,35.6,35.1,29.88,NW,315,0.0,0.0,98,0.00,,---,0.00,VWS V14.01,2013-01-23 01:22:00,
2013-01-22 17:28:00,35.8,35.3,29.85,East,90,0.0,0.0,98,0.00,,---,0.00,VWS V14.01,2013-01-23 01:28:00,
2013-01-22 17:34:00,35.8,35.3,29.85,South,180,0.0,0.0,98,0.00,,---,0.00,VWS V14.01,2013-01-23 01:34:00,
2013-01-22 17:39:00,35.8,35.3,29.85,NE,45,0.0,0.0,98,0.00,,---,0.00,VWS V14.01,2013-01-23 01:39:00,
2013-01-22 17:45:00,35.8,35.3,29.85,South,180,0.0,0.0,98,0.00,,---,0.00,VWS V14.01,2013-01-23 01:45:00,
2013-01-22 17:50:00,35.8,35.3,29.85,SW,225,0.0,0.0,98,0.00,,---,0.00,VWS V14.01,2013-01-23 01:50:00,
2013-01-22 17:57:00,35.4,34.9,29.85,NE,45,0.0,0.0,98,0.00,,---,0.00,VWS V14.01,2013-01-23 01:57:00,
2013-01-22 18:03:00,35.4,34.9,29.85,NE,45,0.0,0.0,98,0.00,,---,0.00,VWS V14.01,2013-01-23 02:03:00,
2013-01-22 18:09:00,35.4,34.9,29.85,NW,315,0.0,0.0,98,0.00,,---,0.00,VWS V14.01,2013-01-23 02:09:00,
2013-01-22 18:14:00,35.4,34.9,29.85,North,0,0.0,0.0,98,0.00,,---,0.00,VWS V14.01,2013-01-23 02:14:00,
2013-01-22 18:19:00,35.4,34.9,29.85,SE,135,0.0,0.0,98,0.00,,---,0.00,VWS V14.01,2013-01-23 02:19:00,
2013-01-22 18:24:00,35.4,34.9,29.85,North,0,0.0,0.0,98,0.00,,---,0.00,VWS V14.01,2013-01-23 02:24:00,
2013-01-22 18:30:00,35.4,34.9,29.85,NE,45,0.0,0.0,98,0.00,,---,0.00,VWS V14.01,2013-01-23 02:30:00,
2013-01-22 18:35:00,35.2,34.7,29.85,ESE,112,0.0,0.0,98,0.00,,---,0.00,VWS V14.01,2013-01-23 02:35:00,
2013-01-22 18:40:00,35.2,34.7,29.88,East,90,0.0,0.0,98,0.00,,---,0.00,VWS V14.01,2013-01-23 02:40:00,
2013-01-22 18:45:00,35.4,34.9,29.88,East,90,0.0,744.7,98,0.00,,---,0.00,VWS V14.01,2013-01-23 02:45:00,
2013-01-22 18:51:00,35.2,34.7,29.88,NE,45,0.0,0.0,98,0.00,,---,0.00,VWS V14.01,2013-01-23 02:51:00,
2013-01-22 18:56:00,35.2,34.7,29.85,East,90,0.0,0.0,98,0.00,,---,0.00,VWS V14.01,2013-01-23 02:56:00,
2013-01-22 19:01:00,35.4,34.9,29.85,ENE,68,0.0,0.0,98,0.00,,---,0.00,VWS V14.01,2013-01-23 03:01:00,
2013-01-22 19:07:00,35.4,34.9,29.85,NE,45,0.0,0.0,98,0.00,,---,0.00,VWS V14.01,2013-01-23 03:07:00,
2013-01-22 19:12:00,35.4,34.9,29.85,NE,45,0.0,0.0,98,0.00,,---,0.00,VWS V14.01,2013-01-23 03:12:00,
2013-01-22 19:17:00,35.4,34.9,29.85,NE,45,0.0,0.0,98,0.00,,---,0.00,VWS V14.01,2013-01-23 03:17:00,
2013-01-22 19:23:00,35.2,34.7,29.85,North,0,0.0,0.0,98,0.00,,---,0.00,VWS V14.01,2013-01-23 03:23:00,
2013-01-22 19:28:00,35.2,34.7,29.85,East,90,0.0,0.0,98,0.00,,---,0.00,VWS V14.01,2013-01-23 03:28:00,
2013-01-22 19:34:00,35.2,34.7,29.85,NE,45,0.0,0.0,98,0.00,,---,0.00,VWS V14.01,2013-01-23 03:34:00,
2013-01-22 19:39:00,35.2,34.7,29.85,East,90,0.0,859.3,98,0.00,,---,0.00,VWS V14.01,2013-01-23 03:39:00,
2013-01-22 19:44:00,35.4,34.9,29.85,North,0,1.1,1.1,98,0.00,,---,0.00,VWS V14.01,2013-01-23 03:44:00,
2013-01-22 19:49:00,35.2,34.7,29.85,NW,315,0.0,0.0,98,0.00,,---,0.00,VWS V14.01,2013-01-23 03:49:00,
2013-01-22 19:55:00,35.4,34.9,29.85,East,90,0.0,0.0,98,0.00,,---,0.00,VWS V14.01,2013-01-23 03:55:00,
2013-01-22 20:00:00,35.4,34.9,29.85,South,180,0.0,0.0,98,0.00,,---,0.00,VWS V14.01,2013-01-23 04:00:00,
2013-01-22 20:06:00,35.4,34.9,29.85,North,0,0.0,0.0,98,0.00,,---,0.00,VWS V14.01,2013-01-23 04:06:00,
2013-01-22 20:12:00,35.4,34.9,29.82,North,0,0.0,0.0,98,0.00,,---,0.00,VWS V14.01,2013-01-23 04:12:00,
2013-01-22 20:17:00,35.4,34.9,29.82,NE,45,0.0,0.0,98,0.00,,---,0.00,VWS V14.01,2013-01-23 04:17:00,
2013-01-22 20:23:00,35.4,34.9,29.82,ENE,68,0.0,0.0,98,0.00,,---,0.00,VWS V14.01,2013-01-23 04:23:00,
2013-01-22 20:29:00,35.4,34.9,29.82,North,0,0.0,0.0,98,0.00,,---,0.00,VWS V14.01,2013-01-23 04:29:00,
2013-01-22 20:34:00,35.4,34.9,29.82,NW,315,0.0,0.0,98,0.00,,---,0.00,VWS V14.01,2013-01-23 04:34:00,
2013-01-22 20:39:00,35.4,34.9,29.82,NW,315,0.0,0.0,98,0.00,,---,0.00,VWS V14.01,2013-01-23 04:39:00,
2013-01-22 20:44:00,35.6,35.1,29.82,SSW,202,0.0,0.0,98,0.00,,---,0.00,VWS V14.01,2013-01-23 04:44:00,
2013-01-22 20:50:00,35.6,35.1,29.82,NE,45,0.0,0.0,98,0.00,,---,0.00,VWS V14.01,2013-01-23 04:50:00,
2013-01-22 20:55:00,35.8,35.3,29.85,East,90,0.0,0.0,98,0.00,,---,0.00,VWS V14.01,2013-01-23 04:55:00,
2013-01-22 21:01:00,35.8,35.3,29.85,SE,135,0.0,0.0,98,0.00,,---,0.00,VWS V14.01,2013-01-23 05:01:00,
2013-01-22 21:03:00,35.8,35.3,29.85,NW,315,0.0,0.0,98,0.00,,---,0.00,VWS V14.01,2013-01-23 05:03:00,
2013-01-22 21:07:00,35.8,35.3,29.85,North,0,0.0,0.0,98,0.00,,---,0.00,VWS V14.01,2013-01-23 05:07:00,
2013-01-22 21:09:00,35.8,35.3,29.85,NNE,22,0.0,0.0,98,0.00,,---,0.00,VWS V14.01,2013-01-23 05:09:00,
2013-01-22 21:14:00,35.8,35.3,29.85,NE,45,0.0,0.0,98,0.00,,---,0.00,VWS V14.01,2013-01-23 05:14:00,
2013-01-22 21:19:00,35.8,35.3,29.85,NE,45,0.0,0.0,98,0.00,,---,0.00,VWS V14.01,2013-01-23 05:19:00,
2013-01-22 21:24:00,35.6,35.1,29.85,NE,45,0.0,0.0,98,0.00,,---,0.00,VWS V14.01,2013-01-23 05:24:00,
2013-01-22 21:31:00,35.6,35.1,29.82,SE,135,0.0,0.0,98,0.00,,---,0.00,VWS V14.01,2013-01-23 05:31:00,
2013-01-22 21:38:00,35.6,35.1,29.82,East,90,0.0,0.0,98,0.00,,---,0.00,VWS V14.01,2013-01-23 05:38:00,
2013-01-22 21:43:00,35.6,35.1,29.85,North,0,0.0,0.0,98,0.00,,---,0.00,VWS V14.01,2013-01-23 05:43:00,
2013-01-22 21:48:00,35.4,34.9,29.85,North,0,0.0,0.0,98,0.00,,---,0.00,VWS V14.01,2013-01-23 05:48:00,
2013-01-22 21:54:00,35.4,34.9,29.85,South,180,1.3,1.3,98,0.00,,---,0.00,VWS V14.01,2013-01-23 05:54:00,
2013-01-22 21:59:00,35.6,35.1,29.85,South,180,0.0,0.0,98,0.00,,---,0.00,VWS V14.01,2013-01-23 05:59:00,
2013-01-22 22:04:00,35.8,35.3,29.85,SE,135,0.0,0.0,98,0.00,,---,0.00,VWS V14.01,2013-01-23 06:04:00,
2013-01-22 22:10:00,35.8,35.3,29.88,North,0,1.1,1.6,98,0.00,,---,0.00,VWS V14.01,2013-01-23 06:10:00,
2013-01-22 22:15:00,35.6,35.1,29.88,SE,135,0.0,0.0,98,0.00,,---,0.00,VWS V14.01,2013-01-23 06:15:00,
2013-01-22 22:20:00,35.6,35.1,29.88,NE,45,0.0,0.0,98,0.00,,---,0.00,VWS V14.01,2013-01-23 06:20:00,
2013-01-22 22:25:00,35.8,35.3,29.85,South,180,0.0,1.1,98,0.00,,---,0.00,VWS V14.01,2013-01-23 06:25:00,
2013-01-22 22:30:00,35.6,35.1,29.85,NE,45,0.0,0.0,98,0.00,,---,0.00,VWS V14.01,2013-01-23 06:30:00,
2013-01-22 22:36:00,35.6,35.1,29.85,SE,135,0.0,0.0,98,0.00,,---,0.00,VWS V14.01,2013-01-23 06:36:00,
2013-01-22 22:41:00,35.8,35.3,29.85,NW,315,0.0,0.0,98,0.00,,---,0.00,VWS V14.01,2013-01-23 06:41:00,
2013-01-22 22:47:00,36.0,35.5,29.85,NW,315,0.0,0.0,98,0.00,,---,0.00,VWS V14.01,2013-01-23 06:47:00,
2013-01-22 22:53:00,36.0,35.5,29.85,NW,315,0.0,0.0,98,0.00,,---,0.00,VWS V14.01,2013-01-23 06:53:00,
2013-01-22 22:59:00,36.0,35.5,29.85,NW,315,0.0,0.0,98,0.00,,---,0.00,VWS V14.01,2013-01-23 06:59:00,
2013-01-22 23:04:00,36.0,35.5,29.85,NW,315,0.0,0.0,98,0.00,,---,0.00,VWS V14.01,2013-01-23 07:04:00,
2013-01-22 23:10:00,35.8,35.3,29.85,NW,315,0.0,0.0,98,0.00,,---,0.00,VWS V14.01,2013-01-23 07:10:00,
2013-01-22 23:15:00,36.0,35.5,29.85,East,90,0.0,0.0,98,0.00,,---,0.00,VWS V14.01,2013-01-23 07:15:00,
2013-01-22 23:21:00,36.0,35.5,29.85,SE,135,0.0,0.0,98,0.00,,---,0.00,VWS V14.01,2013-01-23 07:21:00,
2013-01-22 23:26:00,36.0,35.5,29.85,South,180,0.0,0.0,98,0.00,,---,0.00,VWS V14.01,2013-01-23 07:26:00,
2013-01-22 23:32:00,36.0,35.5,29.85,ESE,112,0.0,0.0,98,0.00,,---,0.00,VWS V14.01,2013-01-23 07:32:00,
2013-01-22 23:38:00,36.0,35.5,29.85,ESE,112,0.0,0.0,98,0.00,,---,0.00,VWS V14.01,2013-01-23 07:38:00,
2013-01-22 23:43:00,36.0,35.5,29.88,North,0,0.0,0.0,98,0.00,,---,0.00,VWS V14.01,2013-01-23 07:43:00,
2013-01-22 23:48:00,36.0,35.5,29.88,ENE,68,0.0,0.0,98,0.00,,---,0.00,VWS V14.01,2013-01-23 07:48:00,
2013-01-22 23:53:00,36.0,35.5,29.88,NE,45,0.0,0.0,98,0.00,,---,0.00,VWS V14.01,2013-01-23 07:53:00,
2013-01-22 23:59:00,36.0,35.5,29.82,NW,315,0.0,0.0,98,0.00,,---,0.00,VWS V14.01,2013-01-23 07:59:00,